sensor_id;sensor_type;location;lat;lon;timestamp;P1;durP1;ratioP1;P2;durP2;ratioP2
75295;SDS011;64623;44.738;37.804;2022-11-21T00:01:37;14.60;;;6.72;;
75295;SDS011;64623;44.738;37.804;2022-11-21T00:04:06;12.05;;;5.20;;
75295;SDS011;64623;44.738;37.804;2022-11-21T00:06:35;13.30;;;4.75;;
75295;SDS011;64623;44.738;37.804;2022-11-21T00:09:03;10.68;;;5.07;;
75295;SDS011;64623;44.738;37.804;2022-11-21T00:11:32;8.40;;;4.25;;
75295;SDS011;64623;44.738;37.804;2022-11-21T00:14:01;9.57;;;5.10;;
75295;SDS011;64623;44.738;37.804;2022-11-21T00:16:29;10.38;;;5.28;;
75295;SDS011;64623;44.738;37.804;2022-11-21T00:18:58;30.95;;;6.68;;
75295;SDS011;64623;44.738;37.804;2022-11-21T00:21:27;25.33;;;6.45;;
75295;SDS011;64623;44.738;37.804;2022-11-21T00:23:56;25.60;;;5.82;;
75295;SDS011;64623;44.738;37.804;2022-11-21T00:26:24;17.20;;;5.68;;
75295;SDS011;64623;44.738;37.804;2022-11-21T00:28:53;11.25;;;5.60;;
75295;SDS011;64623;44.738;37.804;2022-11-21T00:31:22;10.65;;;5.70;;
75295;SDS011;64623;44.738;37.804;2022-11-21T00:33:52;15.15;;;5.03;;
75295;SDS011;64623;44.738;37.804;2022-11-21T00:36:21;12.27;;;4.78;;
75295;SDS011;64623;44.738;37.804;2022-11-21T00:38:50;18.42;;;6.10;;
75295;SDS011;64623;44.738;37.804;2022-11-21T00:41:18;21.25;;;6.47;;
75295;SDS011;64623;44.738;37.804;2022-11-21T00:43:47;21.30;;;6.63;;
75295;SDS011;64623;44.738;37.804;2022-11-21T00:46:16;24.73;;;6.53;;
75295;SDS011;64623;44.738;37.804;2022-11-21T00:48:45;10.35;;;5.68;;
75295;SDS011;64623;44.738;37.804;2022-11-21T00:51:14;16.50;;;5.85;;
75295;SDS011;64623;44.738;37.804;2022-11-21T00:53:43;8.80;;;4.68;;
75295;SDS011;64623;44.738;37.804;2022-11-21T00:56:12;6.28;;;4.35;;
75295;SDS011;64623;44.738;37.804;2022-11-21T00:58:41;7.57;;;5.00;;
75295;SDS011;64623;44.738;37.804;2022-11-21T01:01:13;13.15;;;4.85;;
75295;SDS011;64623;44.738;37.804;2022-11-21T01:03:43;9.40;;;4.75;;
75295;SDS011;64623;44.738;37.804;2022-11-21T01:06:14;10.02;;;4.82;;
75295;SDS011;64623;44.738;37.804;2022-11-21T01:08:43;13.55;;;4.43;;
75295;SDS011;64623;44.738;37.804;2022-11-21T01:11:13;7.72;;;3.83;;
75295;SDS011;64623;44.738;37.804;2022-11-21T01:13:44;7.10;;;5.00;;
75295;SDS011;64623;44.738;37.804;2022-11-21T01:16:14;8.20;;;4.32;;
75295;SDS011;64623;44.738;37.804;2022-11-21T01:18:48;14.60;;;4.63;;
75295;SDS011;64623;44.738;37.804;2022-11-21T01:21:18;21.77;;;5.85;;
75295;SDS011;64623;44.738;37.804;2022-11-21T01:23:49;8.50;;;4.18;;
75295;SDS011;64623;44.738;37.804;2022-11-21T01:26:22;8.68;;;4.20;;
75295;SDS011;64623;44.738;37.804;2022-11-21T01:28:53;7.07;;;5.00;;
75295;SDS011;64623;44.738;37.804;2022-11-21T01:31:23;10.55;;;4.57;;
75295;SDS011;64623;44.738;37.804;2022-11-21T01:33:55;9.52;;;4.53;;
75295;SDS011;64623;44.738;37.804;2022-11-21T01:36:26;8.65;;;4.38;;
75295;SDS011;64623;44.738;37.804;2022-11-21T01:39:00;12.20;;;4.28;;
75295;SDS011;64623;44.738;37.804;2022-11-21T01:41:35;11.38;;;4.18;;
75295;SDS011;64623;44.738;37.804;2022-11-21T01:44:14;10.48;;;3.78;;
75295;SDS011;64623;44.738;37.804;2022-11-21T01:46:49;6.85;;;4.55;;
75295;SDS011;64623;44.738;37.804;2022-11-21T01:49:26;7.90;;;5.57;;
75295;SDS011;64623;44.738;37.804;2022-11-21T01:52:00;7.72;;;4.22;;
75295;SDS011;64623;44.738;37.804;2022-11-21T01:59:49;10.40;;;4.45;;
75295;SDS011;64623;44.738;37.804;2022-11-21T02:02:43;11.82;;;5.90;;
75295;SDS011;64623;44.738;37.804;2022-11-21T02:05:17;12.73;;;4.80;;
75295;SDS011;64623;44.738;37.804;2022-11-21T02:07:49;9.45;;;5.85;;
75295;SDS011;64623;44.738;37.804;2022-11-21T02:10:21;13.40;;;5.18;;
75295;SDS011;64623;44.738;37.804;2022-11-21T02:12:51;12.95;;;5.30;;
75295;SDS011;64623;44.738;37.804;2022-11-21T02:15:23;9.80;;;4.13;;
75295;SDS011;64623;44.738;37.804;2022-11-21T02:17:56;7.93;;;5.75;;
75295;SDS011;64623;44.738;37.804;2022-11-21T02:20:25;7.85;;;5.30;;
75295;SDS011;64623;44.738;37.804;2022-11-21T02:23:06;10.63;;;6.07;;
75295;SDS011;64623;44.738;37.804;2022-11-21T02:25:40;12.13;;;4.78;;
75295;SDS011;64623;44.738;37.804;2022-11-21T02:28:11;7.25;;;5.50;;
75295;SDS011;64623;44.738;37.804;2022-11-21T02:30:43;12.23;;;4.85;;
75295;SDS011;64623;44.738;37.804;2022-11-21T02:33:12;7.65;;;5.60;;
75295;SDS011;64623;44.738;37.804;2022-11-21T02:35:41;11.40;;;5.90;;
75295;SDS011;64623;44.738;37.804;2022-11-21T02:38:12;9.45;;;5.50;;
75295;SDS011;64623;44.738;37.804;2022-11-21T02:41:08;8.55;;;5.93;;
75295;SDS011;64623;44.738;37.804;2022-11-21T02:44:17;10.50;;;5.82;;
75295;SDS011;64623;44.738;37.804;2022-11-21T02:46:49;9.13;;;4.90;;
75295;SDS011;64623;44.738;37.804;2022-11-21T02:52:14;10.65;;;5.38;;
75295;SDS011;64623;44.738;37.804;2022-11-21T02:54:43;11.50;;;5.53;;
75295;SDS011;64623;44.738;37.804;2022-11-21T02:57:12;9.40;;;5.40;;
75295;SDS011;64623;44.738;37.804;2022-11-21T02:59:41;9.43;;;5.55;;
75295;SDS011;64623;44.738;37.804;2022-11-21T03:02:10;18.15;;;9.73;;
75295;SDS011;64623;44.738;37.804;2022-11-21T03:04:38;19.67;;;12.27;;
75295;SDS011;64623;44.738;37.804;2022-11-21T03:07:07;19.40;;;12.82;;
75295;SDS011;64623;44.738;37.804;2022-11-21T03:09:36;12.35;;;8.68;;
75295;SDS011;64623;44.738;37.804;2022-11-21T03:12:06;16.42;;;9.18;;
75295;SDS011;64623;44.738;37.804;2022-11-21T03:14:36;13.30;;;8.32;;
75295;SDS011;64623;44.738;37.804;2022-11-21T03:17:05;11.43;;;6.90;;
75295;SDS011;64623;44.738;37.804;2022-11-21T03:19:33;11.15;;;6.53;;
75295;SDS011;64623;44.738;37.804;2022-11-21T03:22:02;9.40;;;5.53;;
75295;SDS011;64623;44.738;37.804;2022-11-21T03:24:31;11.05;;;6.05;;
75295;SDS011;64623;44.738;37.804;2022-11-21T03:27:00;8.73;;;5.78;;
75295;SDS011;64623;44.738;37.804;2022-11-21T03:29:29;10.68;;;6.18;;
75295;SDS011;64623;44.738;37.804;2022-11-21T03:31:58;10.93;;;7.43;;
75295;SDS011;64623;44.738;37.804;2022-11-21T03:34:27;10.18;;;7.28;;
75295;SDS011;64623;44.738;37.804;2022-11-21T03:36:56;15.02;;;6.85;;
75295;SDS011;64623;44.738;37.804;2022-11-21T03:39:24;8.88;;;4.82;;
75295;SDS011;64623;44.738;37.804;2022-11-21T03:41:53;9.48;;;5.82;;
75295;SDS011;64623;44.738;37.804;2022-11-21T03:44:22;12.13;;;6.85;;
75295;SDS011;64623;44.738;37.804;2022-11-21T03:46:51;9.20;;;4.80;;
75295;SDS011;64623;44.738;37.804;2022-11-21T03:49:20;12.07;;;6.00;;
75295;SDS011;64623;44.738;37.804;2022-11-21T03:51:49;8.65;;;4.97;;
75295;SDS011;64623;44.738;37.804;2022-11-21T03:54:17;8.07;;;5.05;;
75295;SDS011;64623;44.738;37.804;2022-11-21T03:56:46;10.48;;;5.90;;
75295;SDS011;64623;44.738;37.804;2022-11-21T03:59:15;7.70;;;5.22;;
75295;SDS011;64623;44.738;37.804;2022-11-21T04:01:43;9.38;;;5.47;;
75295;SDS011;64623;44.738;37.804;2022-11-21T04:04:13;11.55;;;6.43;;
75295;SDS011;64623;44.738;37.804;2022-11-21T04:06:42;8.70;;;6.15;;
75295;SDS011;64623;44.738;37.804;2022-11-21T04:09:11;10.30;;;6.25;;
75295;SDS011;64623;44.738;37.804;2022-11-21T04:11:39;8.45;;;4.88;;
75295;SDS011;64623;44.738;37.804;2022-11-21T04:14:08;7.53;;;5.32;;
75295;SDS011;64623;44.738;37.804;2022-11-21T04:16:37;13.98;;;5.95;;
75295;SDS011;64623;44.738;37.804;2022-11-21T04:19:06;8.82;;;5.05;;
75295;SDS011;64623;44.738;37.804;2022-11-21T04:21:35;8.77;;;5.20;;
75295;SDS011;64623;44.738;37.804;2022-11-21T04:24:04;8.45;;;4.97;;
75295;SDS011;64623;44.738;37.804;2022-11-21T04:26:33;8.02;;;4.40;;
75295;SDS011;64623;44.738;37.804;2022-11-21T04:29:02;9.30;;;5.20;;
75295;SDS011;64623;44.738;37.804;2022-11-21T04:31:31;8.00;;;5.00;;
75295;SDS011;64623;44.738;37.804;2022-11-21T04:33:59;7.93;;;4.78;;
75295;SDS011;64623;44.738;37.804;2022-11-21T04:36:28;9.52;;;5.03;;
75295;SDS011;64623;44.738;37.804;2022-11-21T04:38:57;9.40;;;5.85;;
75295;SDS011;64623;44.738;37.804;2022-11-21T04:41:26;8.85;;;4.72;;
75295;SDS011;64623;44.738;37.804;2022-11-21T04:43:55;9.07;;;6.35;;
75295;SDS011;64623;44.738;37.804;2022-11-21T04:46:24;22.17;;;15.65;;
75295;SDS011;64623;44.738;37.804;2022-11-21T04:48:53;20.17;;;13.07;;
75295;SDS011;64623;44.738;37.804;2022-11-21T04:51:22;21.00;;;12.93;;
75295;SDS011;64623;44.738;37.804;2022-11-21T04:53:51;12.98;;;8.48;;
75295;SDS011;64623;44.738;37.804;2022-11-21T04:56:20;11.98;;;8.10;;
75295;SDS011;64623;44.738;37.804;2022-11-21T04:58:50;10.10;;;6.97;;
75295;SDS011;64623;44.738;37.804;2022-11-21T05:01:20;11.90;;;6.97;;
75295;SDS011;64623;44.738;37.804;2022-11-21T05:03:51;9.77;;;7.88;;
75295;SDS011;64623;44.738;37.804;2022-11-21T05:06:20;11.80;;;7.10;;
75295;SDS011;64623;44.738;37.804;2022-11-21T05:08:49;10.75;;;7.53;;
75295;SDS011;64623;44.738;37.804;2022-11-21T05:14:08;10.38;;;7.00;;
75295;SDS011;64623;44.738;37.804;2022-11-21T05:16:38;12.18;;;8.98;;
75295;SDS011;64623;44.738;37.804;2022-11-21T05:19:07;9.82;;;7.15;;
75295;SDS011;64623;44.738;37.804;2022-11-21T05:21:37;9.82;;;6.22;;
75295;SDS011;64623;44.738;37.804;2022-11-21T05:24:06;14.05;;;7.30;;
75295;SDS011;64623;44.738;37.804;2022-11-21T05:26:36;9.82;;;7.32;;
75295;SDS011;64623;44.738;37.804;2022-11-21T05:29:05;11.07;;;7.57;;
75295;SDS011;64623;44.738;37.804;2022-11-21T05:31:34;13.10;;;7.28;;
75295;SDS011;64623;44.738;37.804;2022-11-21T05:34:03;10.82;;;6.05;;
75295;SDS011;64623;44.738;37.804;2022-11-21T05:36:32;12.75;;;6.72;;
75295;SDS011;64623;44.738;37.804;2022-11-21T05:39:02;11.82;;;6.97;;
75295;SDS011;64623;44.738;37.804;2022-11-21T05:41:31;13.13;;;7.50;;
75295;SDS011;64623;44.738;37.804;2022-11-21T05:44:00;8.55;;;5.60;;
75295;SDS011;64623;44.738;37.804;2022-11-21T05:46:29;9.23;;;6.68;;
75295;SDS011;64623;44.738;37.804;2022-11-21T05:48:58;11.13;;;6.97;;
75295;SDS011;64623;44.738;37.804;2022-11-21T05:51:27;13.70;;;8.77;;
75295;SDS011;64623;44.738;37.804;2022-11-21T05:53:56;14.43;;;7.90;;
75295;SDS011;64623;44.738;37.804;2022-11-21T05:56:26;13.30;;;7.75;;
75295;SDS011;64623;44.738;37.804;2022-11-21T05:58:56;14.05;;;8.77;;
75295;SDS011;64623;44.738;37.804;2022-11-21T06:01:26;12.30;;;8.35;;
75295;SDS011;64623;44.738;37.804;2022-11-21T06:04:13;11.18;;;8.20;;
75295;SDS011;64623;44.738;37.804;2022-11-21T06:06:42;14.38;;;8.38;;
75295;SDS011;64623;44.738;37.804;2022-11-21T06:09:12;10.57;;;7.32;;
75295;SDS011;64623;44.738;37.804;2022-11-21T06:11:41;12.88;;;6.95;;
75295;SDS011;64623;44.738;37.804;2022-11-21T06:14:10;11.43;;;7.90;;
75295;SDS011;64623;44.738;37.804;2022-11-21T06:16:39;11.95;;;6.72;;
75295;SDS011;64623;44.738;37.804;2022-11-21T06:19:08;11.10;;;6.70;;
75295;SDS011;64623;44.738;37.804;2022-11-21T06:21:39;9.07;;;6.30;;
75295;SDS011;64623;44.738;37.804;2022-11-21T06:24:08;10.30;;;6.70;;
75295;SDS011;64623;44.738;37.804;2022-11-21T06:26:41;9.13;;;8.20;;
75295;SDS011;64623;44.738;37.804;2022-11-21T06:29:11;10.98;;;6.75;;
75295;SDS011;64623;44.738;37.804;2022-11-21T06:31:40;8.57;;;6.53;;
75295;SDS011;64623;44.738;37.804;2022-11-21T06:34:10;10.65;;;6.93;;
75295;SDS011;64623;44.738;37.804;2022-11-21T06:36:39;15.70;;;9.98;;
75295;SDS011;64623;44.738;37.804;2022-11-21T06:39:08;17.60;;;8.55;;
75295;SDS011;64623;44.738;37.804;2022-11-21T06:41:39;15.63;;;8.93;;
75295;SDS011;64623;44.738;37.804;2022-11-21T06:44:08;16.08;;;8.45;;
75295;SDS011;64623;44.738;37.804;2022-11-21T06:46:37;9.82;;;7.57;;
75295;SDS011;64623;44.738;37.804;2022-11-21T06:49:06;12.02;;;9.38;;
75295;SDS011;64623;44.738;37.804;2022-11-21T06:51:37;12.48;;;8.77;;
75295;SDS011;64623;44.738;37.804;2022-11-21T06:54:06;13.73;;;8.40;;
75295;SDS011;64623;44.738;37.804;2022-11-21T06:56:36;12.07;;;6.88;;
75295;SDS011;64623;44.738;37.804;2022-11-21T06:59:05;13.63;;;8.52;;
75295;SDS011;64623;44.738;37.804;2022-11-21T07:01:34;11.43;;;7.20;;
75295;SDS011;64623;44.738;37.804;2022-11-21T07:04:03;13.52;;;10.07;;
75295;SDS011;64623;44.738;37.804;2022-11-21T07:06:33;13.38;;;7.90;;
75295;SDS011;64623;44.738;37.804;2022-11-21T07:09:03;13.70;;;7.63;;
75295;SDS011;64623;44.738;37.804;2022-11-21T07:11:52;13.38;;;7.05;;
75295;SDS011;64623;44.738;37.804;2022-11-21T07:14:21;13.55;;;5.95;;
75295;SDS011;64623;44.738;37.804;2022-11-21T07:16:50;12.73;;;8.02;;
75295;SDS011;64623;44.738;37.804;2022-11-21T07:19:19;13.75;;;7.97;;
75295;SDS011;64623;44.738;37.804;2022-11-21T07:21:48;12.13;;;7.60;;
75295;SDS011;64623;44.738;37.804;2022-11-21T07:24:17;14.32;;;8.05;;
75295;SDS011;64623;44.738;37.804;2022-11-21T07:26:46;11.77;;;8.52;;
75295;SDS011;64623;44.738;37.804;2022-11-21T07:29:15;11.90;;;8.10;;
75295;SDS011;64623;44.738;37.804;2022-11-21T07:31:44;18.15;;;8.85;;
75295;SDS011;64623;44.738;37.804;2022-11-21T07:34:13;13.00;;;7.57;;
75295;SDS011;64623;44.738;37.804;2022-11-21T07:36:42;15.10;;;10.48;;
75295;SDS011;64623;44.738;37.804;2022-11-21T07:39:11;12.35;;;8.18;;
75295;SDS011;64623;44.738;37.804;2022-11-21T07:41:39;14.18;;;9.75;;
75295;SDS011;64623;44.738;37.804;2022-11-21T07:44:08;14.13;;;9.48;;
75295;SDS011;64623;44.738;37.804;2022-11-21T07:46:38;15.73;;;9.95;;
75295;SDS011;64623;44.738;37.804;2022-11-21T07:49:07;14.52;;;8.43;;
75295;SDS011;64623;44.738;37.804;2022-11-21T07:51:36;13.27;;;9.35;;
75295;SDS011;64623;44.738;37.804;2022-11-21T07:54:05;11.20;;;9.00;;
75295;SDS011;64623;44.738;37.804;2022-11-21T07:56:34;13.00;;;9.32;;
75295;SDS011;64623;44.738;37.804;2022-11-21T07:59:03;13.18;;;8.90;;
75295;SDS011;64623;44.738;37.804;2022-11-21T08:01:32;11.82;;;7.78;;
75295;SDS011;64623;44.738;37.804;2022-11-21T08:04:01;13.88;;;8.18;;
75295;SDS011;64623;44.738;37.804;2022-11-21T08:06:31;10.18;;;7.78;;
75295;SDS011;64623;44.738;37.804;2022-11-21T08:08:59;17.10;;;8.25;;
75295;SDS011;64623;44.738;37.804;2022-11-21T08:11:28;13.55;;;9.35;;
75295;SDS011;64623;44.738;37.804;2022-11-21T08:14:00;15.98;;;12.40;;
75295;SDS011;64623;44.738;37.804;2022-11-21T08:16:29;18.95;;;12.40;;
75295;SDS011;64623;44.738;37.804;2022-11-21T08:19:00;14.63;;;9.95;;
75295;SDS011;64623;44.738;37.804;2022-11-21T08:21:29;15.77;;;10.10;;
75295;SDS011;64623;44.738;37.804;2022-11-21T08:23:58;13.40;;;8.07;;
75295;SDS011;64623;44.738;37.804;2022-11-21T08:26:28;17.38;;;11.27;;
75295;SDS011;64623;44.738;37.804;2022-11-21T08:28:57;21.63;;;14.68;;
75295;SDS011;64623;44.738;37.804;2022-11-21T08:31:28;19.25;;;13.18;;
75295;SDS011;64623;44.738;37.804;2022-11-21T08:33:57;18.50;;;12.65;;
75295;SDS011;64623;44.738;37.804;2022-11-21T08:36:27;14.98;;;10.15;;
75295;SDS011;64623;44.738;37.804;2022-11-21T08:38:56;13.60;;;9.35;;
75295;SDS011;64623;44.738;37.804;2022-11-21T08:41:25;15.95;;;9.65;;
75295;SDS011;64623;44.738;37.804;2022-11-21T08:44:12;14.18;;;9.88;;
75295;SDS011;64623;44.738;37.804;2022-11-21T08:46:41;17.17;;;9.68;;
75295;SDS011;64623;44.738;37.804;2022-11-21T08:49:10;15.50;;;8.68;;
75295;SDS011;64623;44.738;37.804;2022-11-21T08:51:39;17.45;;;9.43;;
75295;SDS011;64623;44.738;37.804;2022-11-21T08:54:08;15.63;;;10.20;;
75295;SDS011;64623;44.738;37.804;2022-11-21T08:56:37;12.77;;;7.43;;
75295;SDS011;64623;44.738;37.804;2022-11-21T08:59:06;12.77;;;8.40;;
75295;SDS011;64623;44.738;37.804;2022-11-21T09:01:35;15.18;;;9.10;;
75295;SDS011;64623;44.738;37.804;2022-11-21T09:04:05;12.90;;;8.30;;
75295;SDS011;64623;44.738;37.804;2022-11-21T09:06:35;12.57;;;8.70;;
75295;SDS011;64623;44.738;37.804;2022-11-21T09:09:05;12.07;;;7.95;;
75295;SDS011;64623;44.738;37.804;2022-11-21T09:11:35;12.80;;;6.10;;
75295;SDS011;64623;44.738;37.804;2022-11-21T09:14:05;12.50;;;6.53;;
75295;SDS011;64623;44.738;37.804;2022-11-21T09:16:53;11.68;;;6.45;;
75295;SDS011;64623;44.738;37.804;2022-11-21T09:19:42;10.68;;;6.75;;
75295;SDS011;64623;44.738;37.804;2022-11-21T09:22:12;11.60;;;8.63;;
75295;SDS011;64623;44.738;37.804;2022-11-21T09:24:41;14.80;;;7.88;;
75295;SDS011;64623;44.738;37.804;2022-11-21T09:27:11;9.93;;;7.57;;
75295;SDS011;64623;44.738;37.804;2022-11-21T09:29:41;10.45;;;6.60;;
75295;SDS011;64623;44.738;37.804;2022-11-21T09:32:13;11.30;;;6.63;;
75295;SDS011;64623;44.738;37.804;2022-11-21T09:34:42;9.07;;;7.20;;
75295;SDS011;64623;44.738;37.804;2022-11-21T09:37:11;10.82;;;7.72;;
75295;SDS011;64623;44.738;37.804;2022-11-21T09:39:40;10.55;;;7.15;;
75295;SDS011;64623;44.738;37.804;2022-11-21T09:47:44;10.68;;;6.65;;
75295;SDS011;64623;44.738;37.804;2022-11-21T10:00:52;9.73;;;6.60;;
75295;SDS011;64623;44.738;37.804;2022-11-21T10:03:23;11.73;;;7.20;;
75295;SDS011;64623;44.738;37.804;2022-11-21T10:06:40;10.80;;;5.38;;
75295;SDS011;64623;44.738;37.804;2022-11-21T10:14:54;9.43;;;7.10;;
75295;SDS011;64623;44.738;37.804;2022-11-21T10:17:30;11.43;;;7.78;;
75295;SDS011;64623;44.738;37.804;2022-11-21T10:25:29;12.25;;;6.97;;
75295;SDS011;64623;44.738;37.804;2022-11-21T10:31:01;11.32;;;6.70;;
75295;SDS011;64623;44.738;37.804;2022-11-21T10:33:36;10.75;;;7.47;;
75295;SDS011;64623;44.738;37.804;2022-11-21T10:36:15;10.15;;;6.28;;
75295;SDS011;64623;44.738;37.804;2022-11-21T10:38:49;7.97;;;6.82;;
75295;SDS011;64623;44.738;37.804;2022-11-21T10:41:24;12.60;;;5.80;;
75295;SDS011;64623;44.738;37.804;2022-11-21T10:44:21;10.13;;;5.60;;
75295;SDS011;64623;44.738;37.804;2022-11-21T10:53:23;11.23;;;5.80;;
75295;SDS011;64623;44.738;37.804;2022-11-21T10:55:57;11.88;;;6.13;;
75295;SDS011;64623;44.738;37.804;2022-11-21T10:58:35;11.32;;;6.18;;
75295;SDS011;64623;44.738;37.804;2022-11-21T11:01:23;12.18;;;6.65;;
75295;SDS011;64623;44.738;37.804;2022-11-21T11:06:53;22.65;;;7.35;;
75295;SDS011;64623;44.738;37.804;2022-11-21T11:12:33;10.05;;;6.97;;
75295;SDS011;64623;44.738;37.804;2022-11-21T11:15:23;11.55;;;5.97;;
75295;SDS011;64623;44.738;37.804;2022-11-21T11:17:55;28.98;;;8.88;;
75295;SDS011;64623;44.738;37.804;2022-11-21T11:20:31;13.65;;;6.15;;
75295;SDS011;64623;44.738;37.804;2022-11-21T11:23:22;19.17;;;8.07;;
75295;SDS011;64623;44.738;37.804;2022-11-21T11:25:54;14.18;;;7.35;;
75295;SDS011;64623;44.738;37.804;2022-11-21T11:28:25;16.08;;;6.72;;
75295;SDS011;64623;44.738;37.804;2022-11-21T11:31:03;12.45;;;7.35;;
75295;SDS011;64623;44.738;37.804;2022-11-21T11:33:37;15.10;;;8.52;;
75295;SDS011;64623;44.738;37.804;2022-11-21T11:36:09;12.40;;;7.28;;
75295;SDS011;64623;44.738;37.804;2022-11-21T11:38:42;17.23;;;7.75;;
75295;SDS011;64623;44.738;37.804;2022-11-21T11:47:50;14.15;;;6.78;;
75295;SDS011;64623;44.738;37.804;2022-11-21T11:50:35;16.55;;;7.90;;
75295;SDS011;64623;44.738;37.804;2022-11-21T11:56:01;29.60;;;6.82;;
75295;SDS011;64623;44.738;37.804;2022-11-21T11:58:48;17.33;;;8.18;;
75295;SDS011;64623;44.738;37.804;2022-11-21T12:06:47;13.05;;;6.22;;
75295;SDS011;64623;44.738;37.804;2022-11-21T12:10:02;11.18;;;6.07;;
75295;SDS011;64623;44.738;37.804;2022-11-21T12:12:55;12.63;;;5.68;;
75295;SDS011;64623;44.738;37.804;2022-11-21T12:15:39;11.23;;;6.40;;
75295;SDS011;64623;44.738;37.804;2022-11-21T12:20:58;16.08;;;6.78;;
75295;SDS011;64623;44.738;37.804;2022-11-21T12:23:33;10.80;;;6.22;;
75295;SDS011;64623;44.738;37.804;2022-11-21T12:26:26;10.38;;;6.97;;
75295;SDS011;64623;44.738;37.804;2022-11-21T12:43:06;11.27;;;7.22;;
75295;SDS011;64623;44.738;37.804;2022-11-21T12:46:19;12.88;;;6.05;;
75295;SDS011;64623;44.738;37.804;2022-11-21T13:06:17;10.63;;;7.68;;
75295;SDS011;64623;44.738;37.804;2022-11-21T13:08:51;15.10;;;6.53;;
75295;SDS011;64623;44.738;37.804;2022-11-21T13:17:55;10.38;;;5.20;;
75295;SDS011;64623;44.738;37.804;2022-11-21T13:20:17;8.75;;;4.93;;
75295;SDS011;64623;44.738;37.804;2022-11-21T13:22:58;13.23;;;6.55;;
75295;SDS011;64623;44.738;37.804;2022-11-21T13:28:21;12.75;;;6.50;;
75295;SDS011;64623;44.738;37.804;2022-11-21T13:30:57;13.93;;;7.80;;
75295;SDS011;64623;44.738;37.804;2022-11-21T13:36:06;12.75;;;5.50;;
75295;SDS011;64623;44.738;37.804;2022-11-21T13:47:02;7.55;;;6.22;;
75295;SDS011;64623;44.738;37.804;2022-11-21T13:52:48;10.73;;;5.47;;
75295;SDS011;64623;44.738;37.804;2022-11-21T14:03:58;13.82;;;7.28;;
75295;SDS011;64623;44.738;37.804;2022-11-21T14:06:42;11.13;;;6.28;;
75295;SDS011;64623;44.738;37.804;2022-11-21T14:11:53;11.80;;;5.78;;
75295;SDS011;64623;44.738;37.804;2022-11-21T14:14:33;14.15;;;4.82;;
75295;SDS011;64623;44.738;37.804;2022-11-21T14:17:17;12.27;;;7.25;;
75295;SDS011;64623;44.738;37.804;2022-11-21T14:19:59;10.60;;;4.78;;
75295;SDS011;64623;44.738;37.804;2022-11-21T14:22:42;13.57;;;5.07;;
75295;SDS011;64623;44.738;37.804;2022-11-21T14:25:34;9.43;;;5.30;;
75295;SDS011;64623;44.738;37.804;2022-11-21T14:28:11;9.13;;;6.65;;
75295;SDS011;64623;44.738;37.804;2022-11-21T14:31:05;12.93;;;6.57;;
75295;SDS011;64623;44.738;37.804;2022-11-21T14:33:38;15.20;;;8.82;;
75295;SDS011;64623;44.738;37.804;2022-11-21T14:38:53;8.90;;;6.47;;
75295;SDS011;64623;44.738;37.804;2022-11-21T14:41:40;7.95;;;5.22;;
75295;SDS011;64623;44.738;37.804;2022-11-21T14:44:14;7.82;;;5.60;;
75295;SDS011;64623;44.738;37.804;2022-11-21T14:46:44;12.60;;;9.18;;
75295;SDS011;64623;44.738;37.804;2022-11-21T14:49:16;10.32;;;5.15;;
75295;SDS011;64623;44.738;37.804;2022-11-21T14:52:36;14.52;;;6.07;;
75295;SDS011;64623;44.738;37.804;2022-11-21T14:57:31;6.55;;;4.82;;
75295;SDS011;64623;44.738;37.804;2022-11-21T15:00:05;9.48;;;5.32;;
75295;SDS011;64623;44.738;37.804;2022-11-21T15:02:35;11.25;;;6.25;;
75295;SDS011;64623;44.738;37.804;2022-11-21T15:05:05;7.88;;;5.55;;
75295;SDS011;64623;44.738;37.804;2022-11-21T15:07:41;11.25;;;4.93;;
75295;SDS011;64623;44.738;37.804;2022-11-21T15:10:17;9.35;;;5.07;;
75295;SDS011;64623;44.738;37.804;2022-11-21T15:13:02;5.63;;;4.07;;
75295;SDS011;64623;44.738;37.804;2022-11-21T15:15:43;17.73;;;5.35;;
75295;SDS011;64623;44.738;37.804;2022-11-21T15:18:24;10.77;;;5.32;;
75295;SDS011;64623;44.738;37.804;2022-11-21T15:21:00;14.35;;;4.85;;
75295;SDS011;64623;44.738;37.804;2022-11-21T15:23:35;12.85;;;4.97;;
75295;SDS011;64623;44.738;37.804;2022-11-21T15:26:32;12.35;;;5.85;;
75295;SDS011;64623;44.738;37.804;2022-11-21T15:29:15;11.30;;;6.07;;
75295;SDS011;64623;44.738;37.804;2022-11-21T15:32:05;10.10;;;4.00;;
75295;SDS011;64623;44.738;37.804;2022-11-21T15:34:37;6.38;;;4.13;;
75295;SDS011;64623;44.738;37.804;2022-11-21T15:37:16;9.45;;;4.68;;
75295;SDS011;64623;44.738;37.804;2022-11-21T15:39:46;11.73;;;5.40;;
75295;SDS011;64623;44.738;37.804;2022-11-21T15:42:27;10.40;;;4.80;;
75295;SDS011;64623;44.738;37.804;2022-11-21T15:45:24;9.48;;;4.53;;
75295;SDS011;64623;44.738;37.804;2022-11-21T15:47:52;13.15;;;6.25;;
75295;SDS011;64623;44.738;37.804;2022-11-21T15:50:23;9.43;;;4.47;;
75295;SDS011;64623;44.738;37.804;2022-11-21T15:52:52;9.52;;;5.00;;
75295;SDS011;64623;44.738;37.804;2022-11-21T15:55:24;9.80;;;5.05;;
75295;SDS011;64623;44.738;37.804;2022-11-21T15:57:55;14.52;;;6.75;;
75295;SDS011;64623;44.738;37.804;2022-11-21T16:00:24;10.90;;;6.93;;
75295;SDS011;64623;44.738;37.804;2022-11-21T16:02:53;7.88;;;4.72;;
75295;SDS011;64623;44.738;37.804;2022-11-21T16:05:22;10.50;;;4.65;;
75295;SDS011;64623;44.738;37.804;2022-11-21T16:07:51;10.38;;;4.72;;
75295;SDS011;64623;44.738;37.804;2022-11-21T16:10:19;8.02;;;4.10;;
75295;SDS011;64623;44.738;37.804;2022-11-21T16:12:52;8.57;;;5.15;;
75295;SDS011;64623;44.738;37.804;2022-11-21T16:15:21;8.77;;;4.90;;
75295;SDS011;64623;44.738;37.804;2022-11-21T16:17:50;7.53;;;4.82;;
75295;SDS011;64623;44.738;37.804;2022-11-21T16:20:20;9.23;;;5.05;;
75295;SDS011;64623;44.738;37.804;2022-11-21T16:22:48;9.82;;;4.97;;
75295;SDS011;64623;44.738;37.804;2022-11-21T16:25:17;10.00;;;5.05;;
75295;SDS011;64623;44.738;37.804;2022-11-21T16:27:46;8.63;;;4.63;;
75295;SDS011;64623;44.738;37.804;2022-11-21T16:30:15;9.02;;;5.15;;
75295;SDS011;64623;44.738;37.804;2022-11-21T16:32:44;9.93;;;4.95;;
75295;SDS011;64623;44.738;37.804;2022-11-21T16:35:13;7.53;;;6.10;;
75295;SDS011;64623;44.738;37.804;2022-11-21T16:37:42;13.95;;;7.80;;
75295;SDS011;64623;44.738;37.804;2022-11-21T16:40:11;12.57;;;9.02;;
75295;SDS011;64623;44.738;37.804;2022-11-21T16:42:40;16.98;;;11.10;;
75295;SDS011;64623;44.738;37.804;2022-11-21T16:45:08;14.90;;;12.20;;
75295;SDS011;64623;44.738;37.804;2022-11-21T16:47:37;11.95;;;7.78;;
75295;SDS011;64623;44.738;37.804;2022-11-21T16:50:08;19.75;;;13.68;;
75295;SDS011;64623;44.738;37.804;2022-11-21T16:52:37;33.08;;;18.95;;
75295;SDS011;64623;44.738;37.804;2022-11-21T16:55:06;21.98;;;14.55;;
75295;SDS011;64623;44.738;37.804;2022-11-21T16:57:35;10.07;;;7.57;;
75295;SDS011;64623;44.738;37.804;2022-11-21T17:00:04;10.40;;;6.55;;
75295;SDS011;64623;44.738;37.804;2022-11-21T17:02:35;15.23;;;9.02;;
75295;SDS011;64623;44.738;37.804;2022-11-21T17:05:06;11.80;;;5.90;;
75295;SDS011;64623;44.738;37.804;2022-11-21T17:07:35;17.85;;;12.23;;
75295;SDS011;64623;44.738;37.804;2022-11-21T17:10:04;10.40;;;6.80;;
75295;SDS011;64623;44.738;37.804;2022-11-21T17:12:36;11.80;;;8.23;;
75295;SDS011;64623;44.738;37.804;2022-11-21T17:15:06;9.75;;;7.43;;
75295;SDS011;64623;44.738;37.804;2022-11-21T17:17:37;12.10;;;6.57;;